createdAt,value
2022-10-02T00:02:50.833Z,11.40
2022-10-02T00:05:32.109Z,6.65
2022-10-02T00:08:11.987Z,9.75
2022-10-02T00:10:47.405Z,10.82
2022-10-02T00:13:47.101Z,12.07
2022-10-02T00:16:33.695Z,11.57
2022-10-02T00:19:32.064Z,10.57
2022-10-02T00:22:26.424Z,12.00
2022-10-02T00:25:07.510Z,8.85
2022-10-02T00:28:01.325Z,14.18
2022-10-02T00:30:49.266Z,6.78
2022-10-02T00:33:41.896Z,10.57
2022-10-02T00:36:40.650Z,19.35
2022-10-02T00:39:46.795Z,13.73
2022-10-02T00:43:03.756Z,8.82
2022-10-02T00:46:31.280Z,8.07
2022-10-02T00:49:16.695Z,7.90
2022-10-02T00:52:10.860Z,8.43
2022-10-02T00:55:40.708Z,12.55
2022-10-02T00:58:20.848Z,7.22
2022-10-02T01:01:02.692Z,18.48
2022-10-02T01:03:42.206Z,7.60
2022-10-02T01:06:15.047Z,11.90
2022-10-02T01:08:43.224Z,9.27
2022-10-02T01:11:35.425Z,9.38
2022-10-02T01:14:03.613Z,11.93
2022-10-02T01:16:37.905Z,9.88
2022-10-02T01:19:08.742Z,10.32
2022-10-02T01:22:22.849Z,9.43
2022-10-02T01:24:52.338Z,5.28
2022-10-02T01:27:45.279Z,10.02
2022-10-02T01:30:19.366Z,8.90
2022-10-02T01:33:02.319Z,10.93
2022-10-02T01:35:32.033Z,16.67
2022-10-02T01:38:11.136Z,9.38
2022-10-02T01:40:40.503Z,10.80
2022-10-02T01:43:14.603Z,9.23
2022-10-02T01:46:23.955Z,9.63
2022-10-02T01:49:14.544Z,8.13
2022-10-02T01:51:42.998Z,11.43
2022-10-02T01:54:34.593Z,6.82
2022-10-02T01:57:21.891Z,10.15
2022-10-02T02:00:25.760Z,14.13
2022-10-02T02:03:06.936Z,10.30
2022-10-02T02:06:17.495Z,7.53
2022-10-02T02:09:00.932Z,8.63
2022-10-02T02:11:35.302Z,6.47
2022-10-02T02:14:11.417Z,9.88
2022-10-02T02:16:50.070Z,9.05
2022-10-02T02:19:41.961Z,8.63
2022-10-02T02:22:19.340Z,7.03
2022-10-02T02:24:59.796Z,8.13
2022-10-02T02:27:32.813Z,9.00
2022-10-02T02:30:06.776Z,6.00
2022-10-02T02:33:02.531Z,10.02
2022-10-02T02:35:35.642Z,7.72
2022-10-02T02:38:15.504Z,12.13
2022-10-02T02:40:45.519Z,9.35
2022-10-02T02:43:21.262Z,3.60
2022-10-02T02:45:56.195Z,7.35
2022-10-02T02:48:38.469Z,8.73
2022-10-02T02:51:18.413Z,6.88
2022-10-02T02:54:04.579Z,7.50
2022-10-02T02:56:58.668Z,9.05
2022-10-02T02:59:29.912Z,9.75
2022-10-02T03:02:23.255Z,11.07
2022-10-02T03:04:51.035Z,4.90
2022-10-02T03:07:50.835Z,7.65
2022-10-02T03:10:46.030Z,8.57
2022-10-02T03:13:41.038Z,6.82
2022-10-02T03:19:41.032Z,6.30
2022-10-02T03:25:58.276Z,5.18
2022-10-02T03:31:38.120Z,11.13
2022-10-02T03:34:10.455Z,9.25
2022-10-02T03:36:37.339Z,5.00
2022-10-02T03:39:31.037Z,6.13
2022-10-02T03:41:59.369Z,10.60
2022-10-02T03:47:28.145Z,11.18
2022-10-02T03:49:55.102Z,9.75
2022-10-02T03:52:31.836Z,6.20
2022-10-02T03:55:09.346Z,5.75
2022-10-02T03:57:37.129Z,4.07
2022-10-02T04:00:13.733Z,8.70
2022-10-02T04:03:15.029Z,2.58
2022-10-02T04:05:56.466Z,10.40
2022-10-02T04:08:30.126Z,4.65
2022-10-02T04:11:24.465Z,5.70
2022-10-02T04:14:03.813Z,4.85
2022-10-02T04:16:42.230Z,7.72
2022-10-02T04:19:44.491Z,8.65
2022-10-02T04:22:13.929Z,5.68
2022-10-02T04:25:12.771Z,5.80
2022-10-02T04:27:48.039Z,7.70
2022-10-02T04:30:17.706Z,3.58
2022-10-02T04:32:51.461Z,5.78
2022-10-02T04:35:47.412Z,5.20
2022-10-02T04:38:39.196Z,4.65
2022-10-02T04:41:16.425Z,4.30
2022-10-02T04:43:43.165Z,4.35
2022-10-02T04:46:33.209Z,5.45
2022-10-02T04:49:42.726Z,6.85
2022-10-02T04:52:20.264Z,7.13
2022-10-02T04:55:08.708Z,5.97
2022-10-02T04:57:58.932Z,6.93
2022-10-02T05:03:53.297Z,3.67
2022-10-02T05:06:50.630Z,6.70
2022-10-02T05:09:31.654Z,6.72
2022-10-02T05:12:05.045Z,5.30
2022-10-02T05:14:47.960Z,9.80
2022-10-02T05:17:40.581Z,3.33
2022-10-02T05:20:43.108Z,7.95
2022-10-02T05:23:25.136Z,13.13
2022-10-02T05:26:26.500Z,7.05
2022-10-02T05:29:19.130Z,10.68
2022-10-02T05:32:15.091Z,4.43
2022-10-02T05:35:09.672Z,5.18
2022-10-02T05:37:47.377Z,8.68
2022-10-02T05:40:30.308Z,8.15
2022-10-02T05:46:24.832Z,8.63
2022-10-02T05:48:59.215Z,9.65
2022-10-02T05:51:40.187Z,9.57
2022-10-02T05:54:40.112Z,10.05
2022-10-02T05:57:16.704Z,8.60
2022-10-02T05:59:50.540Z,11.32
2022-10-02T06:03:04.818Z,10.68
2022-10-02T06:05:55.038Z,8.50
2022-10-02T06:09:04.860Z,9.00
2022-10-02T06:14:50.727Z,5.30
2022-10-02T06:17:36.472Z,9.50
2022-10-02T06:20:25.625Z,5.15
2022-10-02T06:23:20.364Z,7.38
2022-10-02T06:26:11.537Z,12.30
2022-10-02T06:29:16.001Z,10.25
2022-10-02T06:31:56.536Z,10.45
2022-10-02T06:34:30.182Z,11.73
2022-10-02T06:40:11.869Z,10.88
2022-10-02T06:42:41.877Z,12.98
2022-10-02T06:45:45.097Z,9.95
2022-10-02T06:48:30.290Z,8.57
2022-10-02T06:51:10.358Z,6.05
2022-10-02T06:54:02.722Z,8.80
2022-10-02T06:57:03.560Z,7.70
2022-10-02T07:00:01.068Z,6.88
2022-10-02T07:02:40.513Z,9.57
2022-10-02T07:05:26.365Z,11.77
2022-10-02T07:08:06.989Z,7.25
2022-10-02T07:11:05.911Z,6.53
2022-10-02T07:13:58.541Z,6.70
2022-10-02T07:16:54.483Z,8.13
2022-10-02T07:20:25.254Z,4.25
2022-10-02T07:23:35.177Z,7.63
2022-10-02T07:26:11.900Z,7.13
2022-10-02T07:28:44.499Z,8.68
2022-10-02T07:32:31.940Z,6.10
2022-10-02T07:35:05.265Z,6.88
2022-10-02T07:38:35.165Z,8.25
2022-10-02T07:41:44.129Z,3.55
2022-10-02T07:44:25.573Z,6.95
2022-10-02T07:47:13.014Z,6.93
2022-10-02T07:50:02.267Z,7.45
2022-10-02T07:52:50.214Z,4.55
2022-10-02T07:55:28.338Z,9.10
2022-10-02T08:01:25.969Z,3.90
2022-10-02T08:04:00.964Z,5.20
2022-10-02T08:06:31.667Z,7.07
2022-10-02T08:09:12.441Z,6.32
2022-10-02T08:11:54.960Z,8.30
2022-10-02T08:14:40.763Z,3.80
2022-10-02T08:23:25.948Z,5.82
2022-10-02T08:26:13.282Z,11.25
2022-10-02T08:29:32.176Z,6.90
2022-10-02T08:32:08.488Z,6.50
2022-10-02T08:34:37.637Z,9.35
2022-10-02T08:37:29.353Z,5.75
2022-10-02T08:40:01.470Z,7.60
2022-10-02T08:46:16.765Z,5.20
2022-10-02T08:49:24.669Z,7.07
2022-10-02T08:52:07.639Z,7.47
2022-10-02T08:55:06.640Z,8.75
2022-10-02T08:58:17.420Z,7.50
2022-10-02T09:01:18.797Z,5.05
2022-10-02T09:04:26.431Z,6.13
2022-10-02T09:07:04.820Z,6.03
2022-10-02T09:09:36.046Z,5.05
2022-10-02T09:12:32.118Z,7.18
2022-10-02T09:15:10.016Z,6.65
2022-10-02T09:17:47.524Z,4.65
2022-10-02T09:20:54.803Z,6.82
2022-10-02T09:23:48.320Z,7.22
2022-10-02T09:26:52.343Z,8.23
2022-10-02T09:29:51.974Z,4.55
2022-10-02T09:32:57.326Z,8.57
2022-10-02T09:36:24.776Z,5.32
2022-10-02T09:39:34.943Z,5.53
2022-10-02T09:42:30.399Z,8.65
2022-10-02T09:45:52.350Z,11.32
2022-10-02T09:48:45.281Z,11.75
2022-10-02T09:51:42.342Z,9.77
2022-10-02T09:54:37.592Z,8.68
2022-10-02T09:57:36.059Z,5.68
2022-10-02T10:00:14.702Z,7.20
2022-10-02T10:02:58.259Z,8.88
2022-10-02T10:05:53.424Z,10.05
2022-10-02T10:08:53.289Z,13.20
2022-10-02T10:12:03.068Z,7.57
2022-10-02T10:15:09.296Z,6.60
2022-10-02T10:18:09.872Z,11.57
2022-10-02T10:21:13.145Z,10.07
2022-10-02T10:24:48.675Z,10.48
2022-10-02T10:27:35.716Z,6.68
2022-10-02T10:30:23.718Z,6.10
2022-10-02T10:33:05.419Z,6.25
2022-10-02T10:35:57.356Z,5.57
2022-10-02T10:38:57.161Z,7.65
2022-10-02T10:41:57.838Z,8.93
2022-10-02T10:44:52.567Z,5.03
2022-10-02T10:51:16.634Z,4.47
2022-10-02T11:00:23.345Z,7.10
2022-10-02T11:02:59.368Z,6.40
2022-10-02T11:05:56.692Z,9.90
2022-10-02T11:09:04.785Z,8.40
2022-10-02T11:11:46.809Z,10.05
2022-10-02T11:15:04.773Z,9.02
2022-10-02T11:18:01.473Z,9.85
2022-10-02T11:21:03.034Z,5.93
2022-10-02T11:23:55.605Z,10.65
2022-10-02T11:26:36.529Z,12.00
2022-10-02T11:29:34.037Z,14.18
2022-10-02T11:32:14.254Z,7.63
2022-10-02T11:34:43.785Z,11.43
2022-10-02T11:37:52.445Z,11.45
2022-10-02T11:43:52.812Z,6.45
2022-10-02T11:46:23.692Z,13.68
2022-10-02T11:49:31.239Z,9.10
2022-10-02T11:52:30.593Z,14.05
2022-10-02T11:55:19.169Z,8.88
2022-10-02T11:58:18.648Z,5.78
2022-10-02T12:01:05.894Z,9.73
2022-10-02T12:03:36.495Z,7.93
2022-10-02T12:06:48.236Z,9.95
2022-10-02T12:09:40.370Z,9.05
2022-10-02T12:12:27.821Z,12.07
2022-10-02T12:15:24.299Z,9.82
2022-10-02T12:17:56.997Z,7.93
2022-10-02T12:24:40.332Z,8.82
2022-10-02T12:27:26.662Z,9.45
2022-10-02T12:33:59.867Z,15.68
2022-10-02T12:37:06.124Z,8.00
2022-10-02T12:39:54.712Z,12.73
2022-10-02T12:42:40.954Z,10.40
2022-10-02T12:45:33.159Z,7.45
2022-10-02T12:48:44.510Z,12.68
2022-10-02T12:51:54.960Z,22.92
2022-10-02T12:55:08.142Z,13.93
2022-10-02T12:57:58.750Z,10.38
2022-10-02T13:00:45.395Z,11.85
2022-10-02T13:03:40.370Z,12.45
2022-10-02T13:06:29.640Z,7.35
2022-10-02T13:09:28.066Z,9.77
2022-10-02T13:12:19.160Z,12.80
2022-10-02T13:15:25.989Z,13.35
2022-10-02T13:18:07.235Z,15.93
2022-10-02T13:20:42.904Z,12.40
2022-10-02T13:26:32.096Z,9.65
2022-10-02T13:29:09.759Z,13.40
2022-10-02T13:32:07.948Z,8.43
2022-10-02T13:35:14.301Z,10.43
2022-10-02T13:37:57.008Z,9.75
2022-10-02T13:40:55.497Z,16.40
2022-10-02T13:43:58.669Z,11.68
2022-10-02T13:47:24.977Z,8.43
2022-10-02T13:50:02.300Z,13.30
2022-10-02T13:55:51.651Z,11.82
2022-10-02T13:59:07.059Z,11.32
2022-10-02T14:01:56.047Z,16.83
2022-10-02T14:04:32.325Z,9.30
2022-10-02T14:07:13.780Z,9.95
2022-10-02T14:10:02.865Z,6.30
2022-10-02T14:12:36.973Z,10.07
2022-10-02T14:15:05.028Z,11.48
2022-10-02T14:17:46.717Z,14.68
2022-10-02T14:20:27.114Z,13.77
2022-10-02T14:26:56.269Z,13.40
2022-10-02T14:29:38.068Z,19.02
2022-10-02T14:32:21.097Z,14.82
2022-10-02T14:35:01.726Z,13.70
2022-10-02T14:38:06.256Z,10.30
2022-10-02T14:40:51.291Z,8.10
2022-10-02T14:43:38.073Z,10.68
2022-10-02T14:46:20.772Z,12.75
2022-10-02T14:49:16.152Z,12.10
2022-10-02T14:52:01.654Z,12.95
2022-10-02T14:54:49.423Z,11.85
2022-10-02T14:57:19.828Z,8.90
2022-10-02T15:00:14.315Z,6.13
2022-10-02T15:03:18.148Z,11.40
2022-10-02T15:06:39.971Z,10.43
2022-10-02T15:12:37.020Z,8.50
2022-10-02T15:15:38.183Z,12.90
2022-10-02T15:18:41.953Z,11.60
2022-10-02T15:21:44.556Z,15.63
2022-10-02T15:28:08.041Z,13.15
2022-10-02T15:31:06.991Z,14.10
2022-10-02T15:33:56.520Z,12.77
2022-10-02T15:37:02.777Z,13.38
2022-10-02T15:40:06.013Z,18.25
2022-10-02T15:46:02.346Z,13.13
2022-10-02T15:48:53.622Z,10.57
2022-10-02T15:51:36.281Z,15.43
2022-10-02T15:54:52.653Z,13.25
2022-10-02T15:57:37.617Z,17.15
2022-10-02T16:00:14.739Z,13.93
2022-10-02T16:03:03.887Z,13.13
2022-10-02T16:05:43.552Z,12.43
2022-10-02T16:08:50.265Z,11.57
2022-10-02T16:11:46.681Z,16.40
2022-10-02T16:14:21.306Z,8.15
2022-10-02T16:17:24.166Z,13.20
2022-10-02T16:19:57.328Z,15.23
2022-10-02T16:22:38.634Z,15.98
2022-10-02T16:25:26.862Z,13.65
2022-10-02T16:28:20.925Z,17.85
2022-10-02T16:30:52.542Z,13.82
2022-10-02T16:33:39.956Z,16.23
2022-10-02T16:36:35.197Z,14.85
2022-10-02T16:40:03.911Z,13.07
2022-10-02T16:43:12.998Z,13.60
2022-10-02T16:46:09.300Z,24.40
2022-10-02T16:48:46.410Z,14.60
2022-10-02T16:52:09.023Z,20.08
2022-10-02T16:54:59.759Z,15.10
2022-10-02T17:00:53.287Z,13.57
2022-10-02T17:03:31.552Z,14.00
2022-10-02T17:06:36.343Z,10.73
2022-10-02T17:09:17.223Z,14.73
2022-10-02T17:12:10.507Z,10.75
2022-10-02T17:14:50.540Z,18.58
2022-10-02T17:17:50.972Z,14.60
2022-10-02T17:20:27.417Z,13.07
2022-10-02T17:23:25.353Z,15.75
2022-10-02T17:26:27.243Z,18.23
2022-10-02T17:29:16.982Z,17.35
2022-10-02T17:32:09.308Z,20.40
2022-10-02T17:34:47.863Z,14.88
2022-10-02T17:37:18.064Z,14.65
2022-10-02T17:40:14.039Z,16.23
2022-10-02T17:43:02.752Z,20.73
2022-10-02T17:46:02.793Z,22.70
2022-10-02T17:49:00.725Z,15.55
2022-10-02T17:51:52.648Z,16.38
2022-10-02T17:55:08.525Z,16.05
2022-10-02T17:57:43.232Z,21.52
2022-10-02T18:00:16.166Z,19.02
2022-10-02T18:03:23.693Z,28.17
2022-10-02T18:06:01.042Z,26.58
2022-10-02T18:08:38.261Z,17.30
2022-10-02T18:11:42.453Z,18.10
2022-10-02T18:14:25.697Z,24.05
2022-10-02T18:17:21.528Z,12.32
2022-10-02T18:20:01.656Z,19.00
2022-10-02T18:22:49.092Z,17.80
2022-10-02T18:25:31.207Z,12.25
2022-10-02T18:28:15.289Z,15.88
2022-10-02T18:31:06.483Z,19.63
2022-10-02T18:33:50.828Z,15.32
2022-10-02T18:36:43.604Z,16.48
2022-10-02T18:39:39.495Z,13.23
2022-10-02T18:42:20.129Z,16.08
2022-10-02T18:45:27.256Z,12.20
2022-10-02T18:48:19.370Z,17.20
2022-10-02T18:51:10.831Z,12.25
2022-10-02T18:53:54.083Z,11.07
2022-10-02T19:00:00.761Z,16.98
2022-10-02T19:02:49.080Z,12.60
2022-10-02T19:05:24.392Z,13.82
2022-10-02T19:08:04.975Z,13.32
2022-10-02T19:10:33.017Z,10.57
2022-10-02T19:13:08.155Z,12.07
2022-10-02T19:15:35.211Z,15.95
2022-10-02T19:18:07.300Z,12.48
2022-10-02T19:21:19.868Z,20.95
2022-10-02T19:24:05.818Z,13.85
2022-10-02T19:26:40.793Z,10.63
2022-10-02T19:29:27.295Z,11.88
2022-10-02T19:32:05.232Z,9.52
2022-10-02T19:34:33.337Z,14.40
2022-10-02T19:37:07.810Z,13.32
2022-10-02T19:39:39.927Z,21.30
2022-10-02T19:42:13.156Z,13.20
2022-10-02T19:44:50.918Z,15.90
2022-10-02T19:47:35.091Z,17.10
2022-10-02T19:50:04.692Z,13.02
2022-10-02T19:52:40.549Z,14.25
2022-10-02T19:55:39.163Z,17.77
2022-10-02T19:58:46.665Z,11.63
2022-10-02T20:01:27.330Z,11.18
2022-10-02T20:06:55.338Z,12.38
2022-10-02T20:09:46.889Z,16.63
2022-10-02T20:16:23.325Z,12.15
2022-10-02T20:21:32.155Z,14.43
2022-10-02T20:24:09.199Z,13.85
2022-10-02T20:26:39.759Z,15.77
2022-10-02T20:29:15.836Z,9.05
2022-10-02T20:31:49.683Z,16.85
2022-10-02T20:34:44.652Z,12.50
2022-10-02T20:37:40.664Z,14.05
2022-10-02T20:40:18.573Z,8.55
2022-10-02T20:43:29.077Z,15.55
2022-10-02T20:46:29.417Z,16.00
2022-10-02T20:52:41.906Z,14.00
2022-10-02T20:55:34.824Z,12.60
2022-10-02T20:58:10.827Z,13.05
2022-10-02T21:01:03.849Z,12.70
2022-10-02T21:04:00.901Z,21.25
2022-10-02T21:06:38.329Z,12.35
2022-10-02T21:09:12.779Z,15.48
2022-10-02T21:15:34.942Z,16.48
2022-10-02T21:18:09.342Z,19.88
2022-10-02T21:20:59.426Z,16.10
2022-10-02T21:24:07.567Z,15.27
2022-10-02T21:27:48.779Z,8.98
2022-10-02T21:33:38.304Z,9.90
2022-10-02T21:36:09.559Z,12.65
2022-10-02T21:38:55.842Z,14.50
2022-10-02T21:41:58.365Z,13.00
2022-10-02T21:45:04.321Z,11.30
2022-10-02T21:48:10.299Z,12.35
2022-10-02T21:50:56.082Z,13.05
2022-10-02T21:54:10.019Z,19.48
2022-10-02T21:57:09.173Z,11.23
2022-10-02T21:59:46.631Z,9.98
2022-10-02T22:02:51.873Z,14.10
2022-10-02T22:05:34.083Z,9.43
2022-10-02T22:08:10.629Z,14.90
2022-10-02T22:10:49.321Z,12.93
2022-10-02T22:13:49.624Z,14.07
2022-10-02T22:16:26.180Z,12.38
2022-10-02T22:19:02.811Z,8.30
2022-10-02T22:22:04.634Z,10.65
2022-10-02T22:24:55.088Z,15.15
2022-10-02T22:27:28.999Z,12.13
2022-10-02T22:29:58.266Z,6.20
2022-10-02T22:33:04.476Z,8.80
2022-10-02T22:35:52.384Z,10.77
2022-10-02T22:38:32.461Z,12.27
2022-10-02T22:44:18.034Z,11.27
2022-10-02T22:46:59.470Z,13.65
2022-10-02T22:49:37.154Z,10.80
2022-10-02T22:52:32.907Z,11.60
2022-10-02T22:58:17.609Z,12.63
2022-10-02T23:01:01.144Z,6.50
2022-10-02T23:04:00.095Z,10.57
2022-10-02T23:06:48.204Z,6.40
2022-10-02T23:09:23.876Z,13.13
2022-10-02T23:12:16.929Z,8.32
2022-10-02T23:15:23.347Z,11.38
2022-10-02T23:17:59.140Z,10.73
2022-10-02T23:20:35.474Z,11.75
2022-10-02T23:23:17.890Z,11.63
2022-10-02T23:25:48.589Z,11.80
2022-10-02T23:32:24.144Z,10.93
2022-10-02T23:34:59.814Z,9.55
2022-10-02T23:41:24.940Z,8.50
2022-10-02T23:44:19.540Z,6.40
2022-10-02T23:46:49.789Z,9.13
2022-10-02T23:52:44.809Z,11.10
2022-10-02T23:55:36.488Z,8.93
2022-10-02T23:58:29.526Z,8.18
